Westhoff, TX (77994)

10:10 AM CST on February 13, 2016 (GMT -0600)
The Cooking Depot | | Change Station
CLOSE
Current Station
Personal Weather Station
Location: Cuero, TX
Elevation: 188 ft
Nearby Weather Stations
Active Advisory: Dense Fog Advisory

Elev 188 ft 29.09 °N, 97.29 °W | Updated 25 seconds ago

Fog
Fog
59.6 °F
Feels Like 59.6 °F
N
0.0
Wind Variable Wind from East
Gusts 14.0 mph

Today
High -- | Low -- °F
--% Chance of Precip.
Yesterday
High -- | Low -- °F
Precip. -- in
Pressure 30.36 in
Visibility 0.2 miles
Clouds
Dew Point 59 °F
Humidity 99%
Rainfall 0.00 in
Snow Depth Not available.
7:10 AM 6:17 PM
Waxing Crescent, 32% visible
METAR KVCT 131551Z 09003KT M1/4SM FG VV002 15/15 A3036 RMK AO2 SLP281 T01500150
Pressure 30.36 in
Visibility 0.2 miles
Clouds
Dew Point 59 °F
Humidity 99%
Rainfall 0.00 in
Snow Depth Not available.
7:10 AM 6:17 PM
Waxing Crescent, 32% visible
METAR KVCT 131551Z 09003KT M1/4SM FG VV002 15/15 A3036 RMK AO2 SLP281 T01500150

10-Day Weather Forecast

Almanac

Astronomy

Feb. 13, 2016 Rise Set
Actual Time
Civil Twilight
Nautical Twilight
Astronomical Twilight
Moon
Length of Visible Light
Length of Day
Tomorrow will be .
, % of the Moon is Illuminated

Today's Extremes

State Highs State Lows

Community

WunderPhotos

Upload Photos

1,892,595 photos uploaded!

WunderBlog® & News

Nearby

Air Quality

  Air Quality AQ Index Pollutant
Not available.

Snow Depth

Station Depth Elevation

Earthquake Activity

City Distance Mag. Time & Date
Minimum magnitude displayed is 2.5.

Coastal Water Temperatures

Place Temperature

Stations

Nearby Weather Stations

Station Location Temp. Windchill Dew Point Humidity Wind Precip. Elev Updated Type
                   

Watches & Warnings

Dense Fog Advisory
Issued: 8:49 AM CST Feb. 13, 2016 – National Weather Service

... Dense fog advisory now in effect until 11 am CST this
morning...

* visibility... one quarter of a mile or less.

* Impacts... poor visibility will cause hazardous driving
conditions.

Precautionary/preparedness actions...

A dense fog advisory means visibilities will frequently be
reduced to less than one quarter mile. If driving... slow down...
use your headlights... and leave plenty of distance ahead of you.